createdAt,value
2023-04-23T00:01:42.108Z,13.99
2023-04-23T00:04:13.674Z,13.73
2023-04-23T00:06:43.574Z,13.86
2023-04-23T00:09:14.424Z,13.68
2023-04-23T00:11:42.738Z,13.87
2023-04-23T00:14:11.371Z,13.76
2023-04-23T00:16:41.768Z,13.73
2023-04-23T00:19:11.306Z,13.82
2023-04-23T00:21:39.440Z,13.83
2023-04-23T00:24:07.938Z,13.84
2023-04-23T00:26:36.007Z,13.80
2023-04-23T00:29:04.087Z,13.91
2023-04-23T00:31:32.204Z,13.74
2023-04-23T00:34:00.367Z,13.35
2023-04-23T00:36:29.782Z,13.31
2023-04-23T00:39:00.434Z,13.56
2023-04-23T00:41:28.621Z,13.55
2023-04-23T00:43:57.191Z,13.39
2023-04-23T00:46:26.186Z,13.33
2023-04-23T00:48:54.308Z,13.30
2023-04-23T00:51:22.955Z,13.45
2023-04-23T00:53:53.128Z,13.44
2023-04-23T00:56:21.513Z,13.39
2023-04-23T00:58:50.013Z,13.44
2023-04-23T01:01:20.927Z,13.27
2023-04-23T01:03:50.022Z,13.48
2023-04-23T01:06:18.226Z,13.12
2023-04-23T01:08:46.620Z,13.40
2023-04-23T01:11:16.821Z,13.26
2023-04-23T01:13:45.323Z,13.20
2023-04-23T01:16:15.788Z,13.22
2023-04-23T01:18:46.002Z,13.30
2023-04-23T01:21:15.958Z,13.28
2023-04-23T01:23:46.014Z,13.01
2023-04-23T01:26:14.960Z,13.03
2023-04-23T01:28:43.908Z,13.23
2023-04-23T01:31:14.411Z,12.92
2023-04-23T01:33:44.157Z,13.03
2023-04-23T01:36:12.443Z,13.06
2023-04-23T01:38:40.874Z,12.82
2023-04-23T01:41:10.484Z,13.16
2023-04-23T01:43:39.100Z,13.35
2023-04-23T01:46:07.209Z,13.21
2023-04-23T01:48:35.332Z,12.89
2023-04-23T01:51:03.451Z,12.91
2023-04-23T01:53:31.499Z,12.91
2023-04-23T01:56:01.338Z,12.81
2023-04-23T01:58:30.801Z,13.25
2023-04-23T02:00:58.943Z,13.07
2023-04-23T02:03:27.186Z,13.01
2023-04-23T02:05:57.514Z,13.16
2023-04-23T02:08:26.236Z,12.56
2023-04-23T02:10:54.345Z,12.97
2023-04-23T02:13:22.438Z,12.95
2023-04-23T02:15:54.396Z,12.73
2023-04-23T02:18:22.533Z,13.00
2023-04-23T02:20:50.752Z,12.89
2023-04-23T02:23:18.948Z,12.80
2023-04-23T02:25:47.013Z,13.24
2023-04-23T02:28:14.993Z,12.89
2023-04-23T02:30:46.010Z,12.91
2023-04-23T02:33:15.467Z,12.94
2023-04-23T02:35:43.510Z,12.90
2023-04-23T02:38:11.537Z,13.02
2023-04-23T02:40:39.619Z,13.05
2023-04-23T02:43:07.824Z,13.11
2023-04-23T02:45:38.023Z,12.95
2023-04-23T02:48:06.122Z,12.97
2023-04-23T02:50:36.044Z,12.81
2023-04-23T02:53:04.044Z,12.91
2023-04-23T02:55:32.615Z,12.94
2023-04-23T02:58:01.287Z,12.81
2023-04-23T03:00:31.411Z,13.14
2023-04-23T03:02:59.715Z,12.83
2023-04-23T03:05:30.181Z,12.92
2023-04-23T03:07:59.692Z,12.87
2023-04-23T03:10:27.808Z,13.24
2023-04-23T03:12:56.374Z,12.75
2023-04-23T03:15:24.657Z,12.78
2023-04-23T03:17:53.720Z,12.93
2023-04-23T03:20:21.895Z,12.91
2023-04-23T03:22:49.939Z,13.18
2023-04-23T03:25:20.401Z,12.89
2023-04-23T03:27:48.480Z,12.83
2023-04-23T03:30:16.523Z,12.71
2023-04-23T03:32:44.749Z,13.14
2023-04-23T03:35:15.101Z,13.07
2023-04-23T03:37:46.623Z,13.07
2023-04-23T03:40:15.504Z,12.92
2023-04-23T03:42:49.882Z,13.00
2023-04-23T03:45:23.519Z,12.56
2023-04-23T03:47:51.617Z,12.77
2023-04-23T03:50:20.230Z,12.70
2023-04-23T03:52:57.612Z,12.45
2023-04-23T03:55:45.637Z,12.76
2023-04-23T03:58:15.162Z,12.62
2023-04-23T04:00:47.121Z,12.40
2023-04-23T04:03:17.778Z,12.55
2023-04-23T04:05:46.089Z,12.81
2023-04-23T04:08:14.150Z,12.51
2023-04-23T04:10:42.139Z,12.37
2023-04-23T04:13:10.701Z,12.27
2023-04-23T04:15:40.035Z,12.32
2023-04-23T04:18:08.131Z,12.23
2023-04-23T04:20:38.492Z,12.30
2023-04-23T04:23:08.762Z,12.33
2023-04-23T04:25:39.830Z,12.20
2023-04-23T04:28:09.365Z,12.15
2023-04-23T04:30:38.188Z,12.21
2023-04-23T04:33:08.893Z,12.05
2023-04-23T04:35:37.250Z,12.24
2023-04-23T04:38:05.324Z,12.29
2023-04-23T04:40:34.441Z,12.50
2023-04-23T04:43:05.564Z,12.35
2023-04-23T04:45:33.639Z,12.36
2023-04-23T04:48:01.683Z,12.53
2023-04-23T04:50:33.039Z,12.27
2023-04-23T04:53:01.108Z,12.73
2023-04-23T04:55:29.092Z,12.59
2023-04-23T04:57:59.601Z,12.46
2023-04-23T05:00:30.588Z,12.45
2023-04-23T05:02:58.854Z,12.53
2023-04-23T05:05:27.613Z,12.97
2023-04-23T05:07:59.141Z,12.77
2023-04-23T05:10:27.188Z,12.63
2023-04-23T05:12:55.187Z,12.89
2023-04-23T05:15:23.385Z,13.30
2023-04-23T05:17:53.566Z,13.37
2023-04-23T05:20:22.358Z,13.20
2023-04-23T05:22:50.433Z,13.62
2023-04-23T05:25:22.028Z,13.13
2023-04-23T05:27:50.026Z,13.34
2023-04-23T05:30:18.380Z,13.33
2023-04-23T05:32:46.497Z,12.67
2023-04-23T05:35:14.547Z,12.32
2023-04-23T05:37:42.953Z,12.54
2023-04-23T05:40:11.276Z,12.83
2023-04-23T05:42:40.903Z,12.83
2023-04-23T05:45:09.610Z,12.92
2023-04-23T05:47:39.941Z,13.24
2023-04-23T05:50:11.561Z,13.23
2023-04-23T05:52:39.748Z,12.96
2023-04-23T05:55:09.707Z,12.89
2023-04-23T05:57:38.692Z,12.91
2023-04-23T06:00:11.715Z,13.40
2023-04-23T06:02:42.877Z,13.56
2023-04-23T06:05:11.370Z,13.47
2023-04-23T06:07:42.131Z,13.36
2023-04-23T06:10:10.926Z,13.73
2023-04-23T06:12:39.885Z,13.75
2023-04-23T06:15:10.213Z,15.35
2023-04-23T06:17:38.504Z,15.03
2023-04-23T06:20:07.596Z,14.97
2023-04-23T06:22:35.662Z,14.50
2023-04-23T06:25:03.829Z,15.22
2023-04-23T06:27:32.637Z,14.73
2023-04-23T06:30:05.548Z,15.05
2023-04-23T06:32:34.977Z,15.51
2023-04-23T06:35:04.573Z,15.51
2023-04-23T06:37:32.901Z,15.10
2023-04-23T06:40:01.198Z,15.26
2023-04-23T06:42:29.258Z,15.26
2023-04-23T06:45:15.400Z,15.79
2023-04-23T06:47:45.101Z,15.17
2023-04-23T06:50:13.142Z,14.88
2023-04-23T06:52:41.230Z,15.08
2023-04-23T06:55:09.978Z,14.92
2023-04-23T06:57:38.050Z,14.79
2023-04-23T07:00:08.141Z,14.74
2023-04-23T07:02:39.738Z,15.19
2023-04-23T07:05:10.390Z,15.05
2023-04-23T07:07:38.521Z,15.60
2023-04-23T07:10:07.102Z,15.82
2023-04-23T07:12:35.203Z,15.96
2023-04-23T07:15:03.492Z,14.74
2023-04-23T07:17:31.986Z,15.77
2023-04-23T07:20:00.210Z,15.80
2023-04-23T07:22:30.489Z,14.87
2023-04-23T07:24:58.724Z,15.35
2023-04-23T07:27:26.866Z,16.00
2023-04-23T07:29:54.880Z,16.51
2023-04-23T07:32:23.695Z,16.67
2023-04-23T07:34:52.423Z,16.48
2023-04-23T07:37:21.657Z,16.28
2023-04-23T07:39:51.069Z,17.04
2023-04-23T07:42:19.126Z,16.26
2023-04-23T07:44:47.172Z,17.20
2023-04-23T07:47:15.128Z,16.09
2023-04-23T07:49:43.605Z,16.43
2023-04-23T07:52:15.490Z,17.12
2023-04-23T07:54:43.572Z,16.55
2023-04-23T07:57:13.129Z,17.18
2023-04-23T07:59:44.061Z,17.11
2023-04-23T08:02:15.096Z,16.74
2023-04-23T08:04:43.476Z,16.70
2023-04-23T08:07:11.667Z,15.84
2023-04-23T08:09:40.508Z,16.69
2023-04-23T08:12:08.662Z,17.10
2023-04-23T08:14:38.025Z,17.13
2023-04-23T08:17:11.931Z,16.06
2023-04-23T08:19:40.229Z,16.43
2023-04-23T08:22:10.849Z,16.25
2023-04-23T08:24:41.215Z,15.73
2023-04-23T08:27:09.353Z,16.06
2023-04-23T08:29:38.888Z,16.48
2023-04-23T08:32:07.149Z,16.76
2023-04-23T08:34:35.865Z,16.70
2023-04-23T08:37:08.490Z,17.42
2023-04-23T08:39:38.948Z,16.84
2023-04-23T08:42:11.908Z,16.90
2023-04-23T08:44:42.896Z,17.66
2023-04-23T08:47:13.487Z,17.97
2023-04-23T08:49:43.102Z,17.60
2023-04-23T08:52:16.153Z,16.75
2023-04-23T08:54:46.834Z,16.20
2023-04-23T08:57:15.126Z,17.70
2023-04-23T08:59:46.112Z,17.29
2023-04-23T09:02:15.860Z,17.85
2023-04-23T09:04:44.023Z,18.06
2023-04-23T09:07:15.215Z,17.82
2023-04-23T09:09:43.529Z,18.01
2023-04-23T09:12:11.721Z,17.29
2023-04-23T09:14:39.815Z,17.28
2023-04-23T09:17:09.232Z,17.36
2023-04-23T09:19:39.396Z,17.79
2023-04-23T09:22:08.147Z,17.97
2023-04-23T09:24:38.577Z,17.28
2023-04-23T09:27:07.047Z,18.45
2023-04-23T09:29:35.850Z,18.35
2023-04-23T09:32:07.522Z,18.29
2023-04-23T09:34:37.966Z,18.25
2023-04-23T09:37:07.929Z,18.86
2023-04-23T09:39:36.308Z,18.84
2023-04-23T09:42:05.034Z,18.46
2023-04-23T09:44:33.831Z,17.64
2023-04-23T09:47:09.486Z,17.62
2023-04-23T09:49:47.905Z,17.90
2023-04-23T09:52:16.168Z,18.43
2023-04-23T09:54:47.350Z,18.32
2023-04-23T09:57:15.641Z,18.04
2023-04-23T09:59:48.863Z,18.07
2023-04-23T10:02:21.283Z,18.62
2023-04-23T10:05:00.679Z,18.17
2023-04-23T10:07:35.418Z,18.70
2023-04-23T10:10:03.760Z,18.71
2023-04-23T10:12:52.318Z,19.01
2023-04-23T10:15:19.923Z,18.60
2023-04-23T10:17:48.099Z,17.97
2023-04-23T10:20:17.977Z,18.06
2023-04-23T10:22:47.375Z,18.58
2023-04-23T10:25:16.148Z,20.03
2023-04-23T10:27:53.802Z,19.13
2023-04-23T10:30:23.136Z,19.66
2023-04-23T10:32:51.617Z,19.54
2023-04-23T10:35:21.212Z,18.62
2023-04-23T10:37:51.504Z,17.92
2023-04-23T10:40:21.987Z,18.12
2023-04-23T10:42:50.414Z,18.19
2023-04-23T10:47:50.280Z,18.69
2023-04-23T10:50:23.928Z,18.18
2023-04-23T10:52:53.639Z,17.77
2023-04-23T10:55:22.712Z,18.78
2023-04-23T10:58:00.801Z,17.80
2023-04-23T11:00:30.770Z,18.37
2023-04-23T11:02:58.961Z,18.50
2023-04-23T11:05:29.279Z,18.14
2023-04-23T11:08:18.133Z,19.03
2023-04-23T11:10:52.637Z,18.62
2023-04-23T11:13:24.992Z,18.68
2023-04-23T11:16:11.767Z,18.72
2023-04-23T11:18:54.780Z,18.93
2023-04-23T11:21:24.202Z,18.98
2023-04-23T11:23:52.397Z,18.27
2023-04-23T11:26:20.804Z,18.86
2023-04-23T11:28:51.012Z,18.21
2023-04-23T11:31:21.507Z,18.31
2023-04-23T11:33:49.607Z,18.05
2023-04-23T11:36:17.701Z,18.64
2023-04-23T11:38:47.452Z,18.47
2023-04-23T11:41:23.457Z,19.02
2023-04-23T11:43:51.769Z,19.07
2023-04-23T11:46:19.778Z,19.84
2023-04-23T11:48:49.663Z,19.15
2023-04-23T11:51:17.736Z,19.54
2023-04-23T11:53:47.358Z,18.59
2023-04-23T11:56:17.088Z,19.53
2023-04-23T11:58:45.179Z,18.96
2023-04-23T12:01:13.273Z,19.37
2023-04-23T12:03:41.547Z,19.67
2023-04-23T12:06:09.695Z,19.46
2023-04-23T12:08:40.386Z,19.57
2023-04-23T12:11:09.766Z,19.21
2023-04-23T12:13:40.557Z,19.59
2023-04-23T12:16:10.499Z,18.86
2023-04-23T12:18:44.373Z,19.46
2023-04-23T12:21:13.302Z,18.76
2023-04-23T12:23:44.455Z,19.52
2023-04-23T12:26:15.236Z,19.48
2023-04-23T12:28:51.210Z,18.93
2023-04-23T12:31:22.961Z,18.92
2023-04-23T12:33:55.001Z,19.09
2023-04-23T12:36:26.974Z,18.78
2023-04-23T12:38:55.114Z,18.91
2023-04-23T12:41:26.569Z,19.03
2023-04-23T12:43:54.601Z,19.36
2023-04-23T12:46:24.836Z,19.03
2023-04-23T12:48:52.939Z,19.67
2023-04-23T12:51:21.036Z,19.55
2023-04-23T12:53:49.079Z,19.52
2023-04-23T12:56:17.117Z,19.83
2023-04-23T12:58:46.556Z,19.42
2023-04-23T13:01:17.444Z,19.71
2023-04-23T13:03:45.648Z,20.31
2023-04-23T13:06:13.771Z,20.29
2023-04-23T13:08:41.822Z,20.57
2023-04-23T13:11:09.829Z,20.67
2023-04-23T13:13:37.825Z,21.29
2023-04-23T13:16:07.779Z,20.68
2023-04-23T13:18:35.859Z,20.22
2023-04-23T13:21:03.949Z,21.49
2023-04-23T13:23:32.094Z,21.73
2023-04-23T13:26:00.156Z,22.35
2023-04-23T13:28:28.266Z,22.24
2023-04-23T13:30:56.255Z,23.01
2023-04-23T13:33:26.142Z,22.31
2023-04-23T13:35:54.585Z,21.12
2023-04-23T13:38:22.672Z,20.73
2023-04-23T13:40:53.538Z,20.90
2023-04-23T13:43:22.063Z,21.41
2023-04-23T13:45:50.255Z,21.56
2023-04-23T13:48:18.832Z,20.97
2023-04-23T13:50:48.326Z,20.99
2023-04-23T13:53:16.397Z,20.93
2023-04-23T13:55:44.489Z,20.89
2023-04-23T13:58:14.857Z,20.58
2023-04-23T14:00:45.066Z,21.01
2023-04-23T14:03:13.113Z,20.22
2023-04-23T14:05:43.401Z,20.93
2023-04-23T14:08:14.892Z,21.22
2023-04-23T14:10:43.765Z,20.82
2023-04-23T14:13:14.584Z,21.30
2023-04-23T14:15:43.141Z,20.67
2023-04-23T14:18:11.243Z,21.57
2023-04-23T14:20:39.292Z,21.94
2023-04-23T14:23:29.107Z,22.04
2023-04-23T14:26:04.328Z,21.59
2023-04-23T14:28:34.888Z,21.61
2023-04-23T14:31:05.456Z,21.64
2023-04-23T14:33:33.604Z,21.56
2023-04-23T14:36:01.670Z,21.50
2023-04-23T14:38:29.755Z,21.88
2023-04-23T14:40:57.796Z,21.52
2023-04-23T14:43:27.200Z,21.01
2023-04-23T14:45:57.494Z,21.63
2023-04-23T14:48:25.648Z,20.95
2023-04-23T14:50:53.991Z,21.18
2023-04-23T14:53:22.009Z,21.51
2023-04-23T14:55:50.169Z,21.20
2023-04-23T14:58:18.199Z,20.98
2023-04-23T15:00:48.904Z,21.06
2023-04-23T15:03:17.214Z,21.05
2023-04-23T15:05:45.511Z,21.16
2023-04-23T15:08:14.031Z,21.41
2023-04-23T15:10:42.106Z,21.25
2023-04-23T15:13:16.109Z,21.26
2023-04-23T15:15:45.675Z,21.34
2023-04-23T15:18:15.670Z,21.26
2023-04-23T15:20:44.380Z,21.39
2023-04-23T15:23:12.550Z,21.24
2023-04-23T15:25:40.926Z,21.34
2023-04-23T15:28:09.302Z,21.36
2023-04-23T15:30:37.314Z,21.82
2023-04-23T15:33:05.383Z,21.71
2023-04-23T15:35:37.137Z,21.04
2023-04-23T15:38:05.251Z,20.79
2023-04-23T15:40:33.526Z,21.25
2023-04-23T15:43:03.552Z,21.84
2023-04-23T15:45:31.662Z,21.43
2023-04-23T15:47:59.732Z,21.24
2023-04-23T15:50:27.866Z,21.09
2023-04-23T15:52:58.994Z,21.19
2023-04-23T15:55:27.195Z,20.79
2023-04-23T15:57:55.368Z,20.57
2023-04-23T16:00:25.777Z,20.59
2023-04-23T16:02:56.182Z,20.60
2023-04-23T16:05:26.602Z,20.38
2023-04-23T16:07:54.690Z,20.44
2023-04-23T16:10:24.491Z,20.38
2023-04-23T16:12:55.245Z,20.28
2023-04-23T16:15:26.670Z,20.50
2023-04-23T16:17:56.027Z,20.27
2023-04-23T16:20:24.379Z,19.85
2023-04-23T16:22:52.533Z,19.68
2023-04-23T16:25:20.635Z,19.69
2023-04-23T16:27:50.203Z,19.15
2023-04-23T16:30:18.227Z,18.68
2023-04-23T16:32:46.580Z,17.80
2023-04-23T16:35:16.856Z,17.59
2023-04-23T16:37:44.916Z,17.42
2023-04-23T16:40:15.782Z,17.46
2023-04-23T16:42:44.053Z,17.47
2023-04-23T16:45:13.612Z,17.29
2023-04-23T16:47:43.513Z,17.22
2023-04-23T16:50:11.889Z,17.14
2023-04-23T16:52:42.189Z,16.99
2023-04-23T16:55:10.556Z,16.84
2023-04-23T16:57:40.650Z,16.23
2023-04-23T17:00:09.798Z,16.23
2023-04-23T17:02:41.289Z,15.99
2023-04-23T17:05:09.810Z,15.85
2023-04-23T17:07:38.466Z,15.41
2023-04-23T17:10:07.072Z,15.25
2023-04-23T17:12:35.139Z,15.52
2023-04-23T17:15:03.214Z,15.17
2023-04-23T17:17:31.291Z,15.30
2023-04-23T17:20:01.270Z,15.31
2023-04-23T17:22:29.403Z,15.27
2023-04-23T17:24:57.412Z,15.22
2023-04-23T17:27:25.491Z,14.99
2023-04-23T17:29:53.471Z,15.19
2023-04-23T17:32:21.862Z,15.08
2023-04-23T17:34:59.338Z,15.04
2023-04-23T17:37:36.243Z,14.65
2023-04-23T17:40:05.737Z,14.60
2023-04-23T17:42:35.600Z,14.59
2023-04-23T17:45:04.403Z,14.52
2023-04-23T17:47:34.391Z,14.59
2023-04-23T17:50:02.521Z,14.48
2023-04-23T17:52:30.567Z,14.55
2023-04-23T17:55:01.081Z,14.48
2023-04-23T17:57:29.242Z,14.73
2023-04-23T17:59:59.591Z,14.82
2023-04-23T18:02:27.844Z,14.82
2023-04-23T18:04:56.234Z,14.27
2023-04-23T18:07:24.457Z,14.85
2023-04-23T18:09:52.610Z,14.56
2023-04-23T18:12:22.130Z,14.64
2023-04-23T18:14:50.587Z,14.42
2023-04-23T18:17:18.668Z,14.30
2023-04-23T18:19:46.822Z,14.64
2023-04-23T18:22:14.960Z,14.58
2023-04-23T18:24:43.234Z,14.42
2023-04-23T18:27:11.660Z,14.87
2023-04-23T18:29:41.370Z,14.53
2023-04-23T18:32:10.942Z,14.39
2023-04-23T18:34:39.816Z,14.58
2023-04-23T18:37:11.815Z,14.48
2023-04-23T18:39:40.528Z,14.38
2023-04-23T18:42:11.150Z,14.52
2023-04-23T18:44:39.756Z,14.03
2023-04-23T18:47:09.484Z,14.33
2023-04-23T18:49:45.736Z,14.12
2023-04-23T18:52:14.030Z,14.13
2023-04-23T18:54:44.066Z,14.12
2023-04-23T18:57:12.306Z,13.96
2023-04-23T18:59:40.493Z,14.12
2023-04-23T19:02:10.892Z,14.01
2023-04-23T19:04:40.041Z,13.90
2023-04-23T19:07:08.143Z,14.07
2023-04-23T19:09:36.266Z,14.12
2023-04-23T19:12:04.609Z,14.12
2023-04-23T19:14:32.800Z,14.23
2023-04-23T19:17:01.163Z,14.08
2023-04-23T19:19:31.984Z,14.38
2023-04-23T19:22:03.229Z,14.36
2023-04-23T19:24:32.079Z,14.30
2023-04-23T19:27:00.866Z,14.30
2023-04-23T19:29:31.347Z,14.31
2023-04-23T19:31:59.432Z,14.20
2023-04-23T19:34:27.443Z,14.23
2023-04-23T19:36:56.856Z,14.04
2023-04-23T19:39:27.061Z,13.98
2023-04-23T19:41:55.111Z,13.89
2023-04-23T19:44:23.142Z,14.21
2023-04-23T19:46:53.544Z,14.01
2023-04-23T19:49:21.673Z,14.21
2023-04-23T19:51:51.049Z,13.71
2023-04-23T19:54:22.242Z,13.71
2023-04-23T19:56:51.722Z,13.43
2023-04-23T19:59:20.894Z,13.53
2023-04-23T20:01:49.185Z,13.50
2023-04-23T20:04:17.422Z,13.62
2023-04-23T20:06:45.762Z,13.65
2023-04-23T20:09:19.206Z,13.37
2023-04-23T20:11:49.151Z,13.52
2023-04-23T20:14:17.389Z,13.52
2023-04-23T20:16:48.381Z,13.67
2023-04-23T20:19:19.362Z,13.23
2023-04-23T20:21:47.728Z,13.79
2023-04-23T20:24:16.488Z,13.84
2023-04-23T20:26:44.724Z,13.68
2023-04-23T20:29:14.441Z,13.57
2023-04-23T20:31:42.746Z,13.33
2023-04-23T20:34:13.442Z,13.62
2023-04-23T20:36:47.426Z,13.48
2023-04-23T20:39:17.073Z,13.37
2023-04-23T20:41:46.520Z,13.37
2023-04-23T20:44:16.011Z,13.39
2023-04-23T20:46:45.461Z,13.18
2023-04-23T20:49:13.759Z,13.41
2023-04-23T20:51:42.027Z,13.51
2023-04-23T20:54:11.198Z,13.43
2023-04-23T20:56:39.289Z,13.38
2023-04-23T20:59:07.302Z,13.44
2023-04-23T21:01:38.302Z,13.10
2023-04-23T21:04:06.817Z,13.24
2023-04-23T21:06:35.045Z,13.49
2023-04-23T21:09:04.457Z,13.30
2023-04-23T21:11:33.064Z,13.19
2023-04-23T21:14:02.031Z,13.32
2023-04-23T21:16:30.464Z,13.19
2023-04-23T21:19:00.141Z,13.15
2023-04-23T21:21:31.769Z,12.98
2023-04-23T21:24:00.758Z,13.07
2023-04-23T21:26:29.185Z,13.20
2023-04-23T21:28:57.391Z,12.94
2023-04-23T21:31:30.388Z,13.02
2023-04-23T21:33:59.763Z,12.97
2023-04-23T21:36:28.397Z,13.26
2023-04-23T21:38:56.397Z,12.88
2023-04-23T21:41:24.456Z,13.13
2023-04-23T21:43:52.475Z,12.69
2023-04-23T21:46:20.688Z,12.76
2023-04-23T21:48:49.246Z,12.84
2023-04-23T21:51:18.975Z,12.91
2023-04-23T21:53:46.982Z,12.54
2023-04-23T21:56:17.367Z,12.52
2023-04-23T21:58:45.542Z,12.45
2023-04-23T22:02:37.976Z,12.47
2023-04-23T22:05:09.380Z,12.19
2023-04-23T22:07:41.171Z,12.30
2023-04-23T22:10:11.366Z,12.14
2023-04-23T22:12:39.820Z,12.18
2023-04-23T22:15:08.948Z,12.17
2023-04-23T22:17:39.091Z,12.17
2023-04-23T22:20:08.114Z,12.36
2023-04-23T22:22:36.953Z,12.22
2023-04-23T22:25:06.763Z,11.94
2023-04-23T22:27:37.741Z,11.91
2023-04-23T22:30:06.449Z,12.05
2023-04-23T22:32:38.515Z,11.87
2023-04-23T22:35:07.216Z,11.88
2023-04-23T22:37:35.752Z,11.89
2023-04-23T22:40:04.988Z,11.88
2023-04-23T22:42:33.132Z,11.76
2023-04-23T22:45:01.117Z,11.80
2023-04-23T22:47:29.158Z,11.59
2023-04-23T22:49:58.826Z,11.52
2023-04-23T22:52:28.925Z,11.57
2023-04-23T22:54:57.634Z,11.56
2023-04-23T22:57:25.940Z,11.68
2023-04-23T22:59:54.079Z,11.64
2023-04-23T23:02:22.222Z,11.61
2023-04-23T23:04:52.534Z,11.60
2023-04-23T23:07:21.942Z,11.71
2023-04-23T23:09:52.058Z,11.65
2023-04-23T23:12:22.771Z,11.54
2023-04-23T23:14:50.804Z,11.56
2023-04-23T23:17:18.904Z,11.77
2023-04-23T23:19:46.894Z,11.61
2023-04-23T23:22:17.395Z,11.42
2023-04-23T23:24:46.867Z,11.46
2023-04-23T23:27:15.076Z,11.60
2023-04-23T23:29:43.476Z,11.70
2023-04-23T23:32:11.741Z,11.56
2023-04-23T23:34:39.746Z,11.59
2023-04-23T23:37:07.758Z,11.69
2023-04-23T23:39:35.804Z,11.79
2023-04-23T23:42:07.318Z,11.84
2023-04-23T23:44:51.267Z,11.81
2023-04-23T23:47:19.279Z,11.80
2023-04-23T23:49:47.300Z,12.18
2023-04-23T23:52:15.305Z,11.90
2023-04-23T23:54:43.299Z,11.94
2023-04-23T23:57:13.009Z,11.82
2023-04-23T23:59:41.320Z,11.99
